sensor_id;sensor_type;location;lat;lon;timestamp;P1;durP1;ratioP1;P2;durP2;ratioP2
39518;SDS011;25200;53.394;10.414;2023-03-23T00:02:06;7.80;;;4.28;;
39518;SDS011;25200;53.394;10.414;2023-03-23T00:04:31;6.70;;;3.60;;
39518;SDS011;25200;53.394;10.414;2023-03-23T00:06:57;7.95;;;4.10;;
39518;SDS011;25200;53.394;10.414;2023-03-23T00:09:26;12.68;;;4.50;;
39518;SDS011;25200;53.394;10.414;2023-03-23T00:11:51;10.18;;;4.10;;
39518;SDS011;25200;53.394;10.414;2023-03-23T00:14:21;9.10;;;4.07;;
39518;SDS011;25200;53.394;10.414;2023-03-23T00:16:48;7.65;;;3.78;;
39518;SDS011;25200;53.394;10.414;2023-03-23T00:19:15;7.28;;;4.20;;
39518;SDS011;25200;53.394;10.414;2023-03-23T00:21:44;7.85;;;4.03;;
39518;SDS011;25200;53.394;10.414;2023-03-23T00:24:11;11.43;;;4.28;;
39518;SDS011;25200;53.394;10.414;2023-03-23T00:26:41;7.72;;;3.95;;
39518;SDS011;25200;53.394;10.414;2023-03-23T00:29:11;9.60;;;4.38;;
39518;SDS011;25200;53.394;10.414;2023-03-23T00:31:46;7.10;;;3.92;;
39518;SDS011;25200;53.394;10.414;2023-03-23T00:34:22;8.52;;;4.07;;
39518;SDS011;25200;53.394;10.414;2023-03-23T00:36:50;7.60;;;4.00;;
39518;SDS011;25200;53.394;10.414;2023-03-23T00:39:22;8.38;;;4.32;;
39518;SDS011;25200;53.394;10.414;2023-03-23T00:41:52;9.15;;;4.28;;
39518;SDS011;25200;53.394;10.414;2023-03-23T00:44:25;11.27;;;4.13;;
39518;SDS011;25200;53.394;10.414;2023-03-23T00:46:55;12.45;;;4.78;;
39518;SDS011;25200;53.394;10.414;2023-03-23T00:49:21;10.07;;;4.50;;
39518;SDS011;25200;53.394;10.414;2023-03-23T00:51:49;8.60;;;4.43;;
39518;SDS011;25200;53.394;10.414;2023-03-23T00:54:16;7.75;;;3.95;;
39518;SDS011;25200;53.394;10.414;2023-03-23T00:56:42;9.98;;;4.13;;
39518;SDS011;25200;53.394;10.414;2023-03-23T00:59:07;8.43;;;4.13;;
39518;SDS011;25200;53.394;10.414;2023-03-23T01:01:33;7.75;;;4.00;;
39518;SDS011;25200;53.394;10.414;2023-03-23T01:04:00;7.97;;;3.97;;
39518;SDS011;25200;53.394;10.414;2023-03-23T01:06:29;10.10;;;4.10;;
39518;SDS011;25200;53.394;10.414;2023-03-23T01:08:56;9.23;;;4.47;;
39518;SDS011;25200;53.394;10.414;2023-03-23T01:11:25;9.50;;;4.53;;
39518;SDS011;25200;53.394;10.414;2023-03-23T01:13:51;9.93;;;4.40;;
39518;SDS011;25200;53.394;10.414;2023-03-23T01:16:17;8.60;;;4.40;;
39518;SDS011;25200;53.394;10.414;2023-03-23T01:18:43;9.50;;;4.30;;
39518;SDS011;25200;53.394;10.414;2023-03-23T01:21:10;11.57;;;4.65;;
39518;SDS011;25200;53.394;10.414;2023-03-23T01:23:38;10.75;;;4.38;;
39518;SDS011;25200;53.394;10.414;2023-03-23T01:26:05;10.35;;;4.70;;
39518;SDS011;25200;53.394;10.414;2023-03-23T01:28:33;9.43;;;4.60;;
39518;SDS011;25200;53.394;10.414;2023-03-23T01:31:04;10.65;;;4.65;;
39518;SDS011;25200;53.394;10.414;2023-03-23T01:33:32;11.20;;;4.80;;
39518;SDS011;25200;53.394;10.414;2023-03-23T01:35:58;8.40;;;4.78;;
39518;SDS011;25200;53.394;10.414;2023-03-23T01:38:28;12.60;;;5.05;;
39518;SDS011;25200;53.394;10.414;2023-03-23T01:40:56;8.10;;;4.63;;
39518;SDS011;25200;53.394;10.414;2023-03-23T01:43:22;10.68;;;5.03;;
39518;SDS011;25200;53.394;10.414;2023-03-23T01:45:48;9.95;;;4.68;;
39518;SDS011;25200;53.394;10.414;2023-03-23T01:51:07;9.85;;;4.93;;
39518;SDS011;25200;53.394;10.414;2023-03-23T01:53:48;10.80;;;4.40;;
39518;SDS011;25200;53.394;10.414;2023-03-23T01:56:20;10.00;;;4.93;;
39518;SDS011;25200;53.394;10.414;2023-03-23T01:58:52;10.27;;;5.03;;
39518;SDS011;25200;53.394;10.414;2023-03-23T02:01:18;12.50;;;4.90;;
39518;SDS011;25200;53.394;10.414;2023-03-23T02:03:50;11.15;;;4.88;;
39518;SDS011;25200;53.394;10.414;2023-03-23T02:06:19;10.82;;;5.50;;
39518;SDS011;25200;53.394;10.414;2023-03-23T02:08:45;10.45;;;4.63;;
39518;SDS011;25200;53.394;10.414;2023-03-23T02:11:15;10.18;;;4.90;;
39518;SDS011;25200;53.394;10.414;2023-03-23T02:13:42;12.25;;;4.82;;
39518;SDS011;25200;53.394;10.414;2023-03-23T02:16:30;9.10;;;5.35;;
39518;SDS011;25200;53.394;10.414;2023-03-23T02:29:54;9.73;;;4.70;;
39518;SDS011;25200;53.394;10.414;2023-03-23T02:35:30;12.30;;;5.00;;
39518;SDS011;25200;53.394;10.414;2023-03-23T02:38:04;12.15;;;4.82;;
39518;SDS011;25200;53.394;10.414;2023-03-23T02:40:41;9.63;;;5.05;;
39518;SDS011;25200;53.394;10.414;2023-03-23T02:43:12;8.68;;;4.90;;
39518;SDS011;25200;53.394;10.414;2023-03-23T02:45:40;11.20;;;5.65;;
39518;SDS011;25200;53.394;10.414;2023-03-23T02:48:08;10.00;;;5.35;;
39518;SDS011;25200;53.394;10.414;2023-03-23T02:50:36;9.77;;;4.63;;
39518;SDS011;25200;53.394;10.414;2023-03-23T02:53:05;10.82;;;5.15;;
39518;SDS011;25200;53.394;10.414;2023-03-23T02:55:35;11.55;;;5.20;;
39518;SDS011;25200;53.394;10.414;2023-03-23T02:58:07;9.70;;;5.35;;
39518;SDS011;25200;53.394;10.414;2023-03-23T03:00:36;9.95;;;5.00;;
39518;SDS011;25200;53.394;10.414;2023-03-23T03:03:03;13.20;;;5.60;;
39518;SDS011;25200;53.394;10.414;2023-03-23T03:08:23;12.30;;;5.50;;
39518;SDS011;25200;53.394;10.414;2023-03-23T03:11:11;8.93;;;5.20;;
39518;SDS011;25200;53.394;10.414;2023-03-23T03:19:14;9.73;;;5.50;;
39518;SDS011;25200;53.394;10.414;2023-03-23T03:21:45;10.30;;;5.30;;
39518;SDS011;25200;53.394;10.414;2023-03-23T03:24:14;8.57;;;4.97;;
39518;SDS011;25200;53.394;10.414;2023-03-23T03:26:44;11.20;;;5.20;;
39518;SDS011;25200;53.394;10.414;2023-03-23T03:29:16;9.85;;;5.35;;
39518;SDS011;25200;53.394;10.414;2023-03-23T03:31:48;8.80;;;5.47;;
39518;SDS011;25200;53.394;10.414;2023-03-23T03:34:16;10.23;;;5.30;;
39518;SDS011;25200;53.394;10.414;2023-03-23T03:36:45;11.48;;;5.28;;
39518;SDS011;25200;53.394;10.414;2023-03-23T03:39:15;11.40;;;6.00;;
39518;SDS011;25200;53.394;10.414;2023-03-23T03:41:42;10.93;;;5.63;;
39518;SDS011;25200;53.394;10.414;2023-03-23T03:44:09;10.75;;;5.40;;
39518;SDS011;25200;53.394;10.414;2023-03-23T03:46:35;10.32;;;5.88;;
39518;SDS011;25200;53.394;10.414;2023-03-23T03:49:02;12.07;;;6.40;;
39518;SDS011;25200;53.394;10.414;2023-03-23T03:51:30;12.18;;;6.10;;
39518;SDS011;25200;53.394;10.414;2023-03-23T03:53:57;11.80;;;6.05;;
39518;SDS011;25200;53.394;10.414;2023-03-23T03:56:23;10.68;;;5.55;;
39518;SDS011;25200;53.394;10.414;2023-03-23T03:58:50;9.55;;;5.55;;
39518;SDS011;25200;53.394;10.414;2023-03-23T04:01:16;10.90;;;6.13;;
39518;SDS011;25200;53.394;10.414;2023-03-23T04:03:43;9.52;;;5.25;;
39518;SDS011;25200;53.394;10.414;2023-03-23T04:06:09;11.40;;;5.38;;
39518;SDS011;25200;53.394;10.414;2023-03-23T04:08:37;11.20;;;5.78;;
39518;SDS011;25200;53.394;10.414;2023-03-23T04:11:04;10.75;;;6.30;;
39518;SDS011;25200;53.394;10.414;2023-03-23T04:13:30;10.75;;;5.93;;
39518;SDS011;25200;53.394;10.414;2023-03-23T04:15:56;11.25;;;6.32;;
39518;SDS011;25200;53.394;10.414;2023-03-23T04:18:22;10.57;;;6.18;;
39518;SDS011;25200;53.394;10.414;2023-03-23T04:20:49;10.82;;;5.60;;
39518;SDS011;25200;53.394;10.414;2023-03-23T04:23:18;13.48;;;6.60;;
39518;SDS011;25200;53.394;10.414;2023-03-23T04:25:46;9.75;;;6.22;;
39518;SDS011;25200;53.394;10.414;2023-03-23T04:28:13;10.13;;;6.32;;
39518;SDS011;25200;53.394;10.414;2023-03-23T04:30:41;11.27;;;6.72;;
39518;SDS011;25200;53.394;10.414;2023-03-23T04:33:08;10.73;;;6.97;;
39518;SDS011;25200;53.394;10.414;2023-03-23T04:35:39;14.63;;;6.13;;
39518;SDS011;25200;53.394;10.414;2023-03-23T04:38:06;13.10;;;6.68;;
39518;SDS011;25200;53.394;10.414;2023-03-23T04:40:32;13.43;;;6.28;;
39518;SDS011;25200;53.394;10.414;2023-03-23T04:43:01;11.00;;;6.43;;
39518;SDS011;25200;53.394;10.414;2023-03-23T04:45:31;12.77;;;6.75;;
39518;SDS011;25200;53.394;10.414;2023-03-23T04:47:57;10.48;;;6.72;;
39518;SDS011;25200;53.394;10.414;2023-03-23T04:50:24;10.48;;;5.95;;
39518;SDS011;25200;53.394;10.414;2023-03-23T04:52:55;11.07;;;6.28;;
39518;SDS011;25200;53.394;10.414;2023-03-23T04:55:23;13.88;;;6.80;;
39518;SDS011;25200;53.394;10.414;2023-03-23T04:57:49;11.45;;;6.85;;
39518;SDS011;25200;53.394;10.414;2023-03-23T05:00:15;12.15;;;6.00;;
39518;SDS011;25200;53.394;10.414;2023-03-23T05:02:43;10.85;;;6.68;;
39518;SDS011;25200;53.394;10.414;2023-03-23T05:05:11;10.00;;;5.88;;
39518;SDS011;25200;53.394;10.414;2023-03-23T05:07:38;9.98;;;5.55;;
39518;SDS011;25200;53.394;10.414;2023-03-23T05:10:05;12.18;;;5.88;;
39518;SDS011;25200;53.394;10.414;2023-03-23T05:12:32;12.88;;;5.70;;
39518;SDS011;25200;53.394;10.414;2023-03-23T05:14:58;13.70;;;5.72;;
39518;SDS011;25200;53.394;10.414;2023-03-23T05:17:24;11.20;;;5.40;;
39518;SDS011;25200;53.394;10.414;2023-03-23T05:19:51;9.85;;;5.47;;
39518;SDS011;25200;53.394;10.414;2023-03-23T05:22:17;7.43;;;4.82;;
39518;SDS011;25200;53.394;10.414;2023-03-23T05:24:45;10.18;;;5.47;;
39518;SDS011;25200;53.394;10.414;2023-03-23T05:27:12;9.02;;;5.20;;
39518;SDS011;25200;53.394;10.414;2023-03-23T05:29:39;8.60;;;4.93;;
39518;SDS011;25200;53.394;10.414;2023-03-23T05:32:06;11.50;;;4.70;;
39518;SDS011;25200;53.394;10.414;2023-03-23T05:34:33;10.50;;;4.90;;
39518;SDS011;25200;53.394;10.414;2023-03-23T05:37:00;8.77;;;4.63;;
39518;SDS011;25200;53.394;10.414;2023-03-23T05:39:27;8.82;;;4.50;;
39518;SDS011;25200;53.394;10.414;2023-03-23T05:41:54;9.10;;;4.45;;
39518;SDS011;25200;53.394;10.414;2023-03-23T05:44:20;9.77;;;4.45;;
39518;SDS011;25200;53.394;10.414;2023-03-23T05:46:46;10.50;;;4.32;;
39518;SDS011;25200;53.394;10.414;2023-03-23T05:49:13;11.20;;;4.63;;
39518;SDS011;25200;53.394;10.414;2023-03-23T05:51:41;8.57;;;4.55;;
39518;SDS011;25200;53.394;10.414;2023-03-23T05:54:11;7.60;;;3.90;;
39518;SDS011;25200;53.394;10.414;2023-03-23T05:56:37;6.60;;;3.53;;
39518;SDS011;25200;53.394;10.414;2023-03-23T05:59:03;8.45;;;3.58;;
39518;SDS011;25200;53.394;10.414;2023-03-23T06:01:29;7.85;;;3.22;;
39518;SDS011;25200;53.394;10.414;2023-03-23T06:03:55;7.88;;;3.38;;
39518;SDS011;25200;53.394;10.414;2023-03-23T06:06:24;8.02;;;3.58;;
39518;SDS011;25200;53.394;10.414;2023-03-23T06:08:51;7.78;;;3.55;;
39518;SDS011;25200;53.394;10.414;2023-03-23T06:11:17;8.52;;;3.60;;
39518;SDS011;25200;53.394;10.414;2023-03-23T06:13:43;7.47;;;2.88;;
39518;SDS011;25200;53.394;10.414;2023-03-23T06:16:09;8.93;;;3.30;;
39518;SDS011;25200;53.394;10.414;2023-03-23T06:18:35;6.45;;;3.00;;
39518;SDS011;25200;53.394;10.414;2023-03-23T06:21:02;7.97;;;2.92;;
39518;SDS011;25200;53.394;10.414;2023-03-23T06:23:28;6.35;;;3.05;;
39518;SDS011;25200;53.394;10.414;2023-03-23T06:25:59;6.72;;;3.40;;
39518;SDS011;25200;53.394;10.414;2023-03-23T06:28:27;6.55;;;3.00;;
39518;SDS011;25200;53.394;10.414;2023-03-23T06:30:53;7.68;;;3.20;;
39518;SDS011;25200;53.394;10.414;2023-03-23T06:33:19;8.10;;;2.97;;
39518;SDS011;25200;53.394;10.414;2023-03-23T06:35:45;7.60;;;2.80;;
39518;SDS011;25200;53.394;10.414;2023-03-23T06:38:10;5.90;;;2.83;;
39518;SDS011;25200;53.394;10.414;2023-03-23T06:40:37;6.35;;;2.65;;
39518;SDS011;25200;53.394;10.414;2023-03-23T06:43:03;7.43;;;2.75;;
39518;SDS011;25200;53.394;10.414;2023-03-23T06:45:29;6.53;;;2.65;;
39518;SDS011;25200;53.394;10.414;2023-03-23T06:47:55;5.20;;;2.72;;
39518;SDS011;25200;53.394;10.414;2023-03-23T06:50:21;6.03;;;2.80;;
39518;SDS011;25200;53.394;10.414;2023-03-23T06:52:48;4.70;;;2.38;;
39518;SDS011;25200;53.394;10.414;2023-03-23T06:55:16;6.28;;;2.60;;
39518;SDS011;25200;53.394;10.414;2023-03-23T06:57:42;7.90;;;2.80;;
39518;SDS011;25200;53.394;10.414;2023-03-23T07:00:09;5.32;;;2.47;;
39518;SDS011;25200;53.394;10.414;2023-03-23T07:02:38;5.97;;;2.50;;
39518;SDS011;25200;53.394;10.414;2023-03-23T07:05:08;7.80;;;2.63;;
39518;SDS011;25200;53.394;10.414;2023-03-23T07:07:35;6.47;;;2.53;;
39518;SDS011;25200;53.394;10.414;2023-03-23T07:10:05;7.32;;;2.30;;
39518;SDS011;25200;53.394;10.414;2023-03-23T07:12:33;5.50;;;2.50;;
39518;SDS011;25200;53.394;10.414;2023-03-23T07:15:01;6.82;;;2.40;;
39518;SDS011;25200;53.394;10.414;2023-03-23T07:17:27;6.20;;;2.22;;
39518;SDS011;25200;53.394;10.414;2023-03-23T07:19:53;5.07;;;2.28;;
39518;SDS011;25200;53.394;10.414;2023-03-23T07:22:19;6.03;;;2.35;;
39518;SDS011;25200;53.394;10.414;2023-03-23T07:24:46;4.72;;;2.30;;
39518;SDS011;25200;53.394;10.414;2023-03-23T07:27:11;5.60;;;2.40;;
39518;SDS011;25200;53.394;10.414;2023-03-23T07:29:37;6.45;;;2.63;;
39518;SDS011;25200;53.394;10.414;2023-03-23T07:32:04;4.68;;;2.20;;
39518;SDS011;25200;53.394;10.414;2023-03-23T07:34:30;5.07;;;2.40;;
39518;SDS011;25200;53.394;10.414;2023-03-23T07:36:57;5.95;;;2.33;;
39518;SDS011;25200;53.394;10.414;2023-03-23T07:39:23;6.18;;;2.45;;
39518;SDS011;25200;53.394;10.414;2023-03-23T07:41:49;5.18;;;2.15;;
39518;SDS011;25200;53.394;10.414;2023-03-23T07:44:15;4.53;;;2.20;;
39518;SDS011;25200;53.394;10.414;2023-03-23T07:46:41;5.60;;;2.35;;
39518;SDS011;25200;53.394;10.414;2023-03-23T07:49:07;4.30;;;2.42;;
39518;SDS011;25200;53.394;10.414;2023-03-23T07:51:34;5.00;;;2.47;;
39518;SDS011;25200;53.394;10.414;2023-03-23T07:54:00;4.47;;;2.20;;
39518;SDS011;25200;53.394;10.414;2023-03-23T07:56:27;7.80;;;2.47;;
39518;SDS011;25200;53.394;10.414;2023-03-23T07:58:54;4.88;;;2.22;;
39518;SDS011;25200;53.394;10.414;2023-03-23T08:01:20;5.85;;;2.70;;
39518;SDS011;25200;53.394;10.414;2023-03-23T08:03:46;5.25;;;2.10;;
39518;SDS011;25200;53.394;10.414;2023-03-23T08:06:12;5.25;;;2.47;;
39518;SDS011;25200;53.394;10.414;2023-03-23T08:08:37;7.00;;;2.45;;
39518;SDS011;25200;53.394;10.414;2023-03-23T08:11:05;5.38;;;2.60;;
39518;SDS011;25200;53.394;10.414;2023-03-23T08:13:31;6.50;;;2.83;;
39518;SDS011;25200;53.394;10.414;2023-03-23T08:15:58;4.68;;;2.30;;
39518;SDS011;25200;53.394;10.414;2023-03-23T08:18:28;5.00;;;2.25;;
39518;SDS011;25200;53.394;10.414;2023-03-23T08:20:54;6.88;;;2.33;;
39518;SDS011;25200;53.394;10.414;2023-03-23T08:23:20;4.47;;;2.30;;
39518;SDS011;25200;53.394;10.414;2023-03-23T08:25:46;4.88;;;2.40;;
39518;SDS011;25200;53.394;10.414;2023-03-23T08:28:13;4.63;;;2.35;;
39518;SDS011;25200;53.394;10.414;2023-03-23T08:30:39;4.68;;;2.25;;
39518;SDS011;25200;53.394;10.414;2023-03-23T08:33:05;5.03;;;2.28;;
39518;SDS011;25200;53.394;10.414;2023-03-23T08:35:32;7.32;;;2.30;;
39518;SDS011;25200;53.394;10.414;2023-03-23T08:37:57;4.07;;;1.90;;
39518;SDS011;25200;53.394;10.414;2023-03-23T08:40:23;5.53;;;2.17;;
39518;SDS011;25200;53.394;10.414;2023-03-23T08:42:51;4.55;;;2.13;;
39518;SDS011;25200;53.394;10.414;2023-03-23T08:45:19;4.30;;;2.08;;
39518;SDS011;25200;53.394;10.414;2023-03-23T08:47:47;5.07;;;2.08;;
39518;SDS011;25200;53.394;10.414;2023-03-23T08:50:17;4.53;;;2.25;;
39518;SDS011;25200;53.394;10.414;2023-03-23T08:52:44;4.47;;;2.05;;
39518;SDS011;25200;53.394;10.414;2023-03-23T08:55:10;4.70;;;2.10;;
39518;SDS011;25200;53.394;10.414;2023-03-23T08:57:36;4.65;;;2.00;;
39518;SDS011;25200;53.394;10.414;2023-03-23T09:00:03;5.93;;;2.20;;
39518;SDS011;25200;53.394;10.414;2023-03-23T09:02:39;4.95;;;2.53;;
39518;SDS011;25200;53.394;10.414;2023-03-23T09:05:07;5.45;;;2.50;;
39518;SDS011;25200;53.394;10.414;2023-03-23T09:07:35;5.53;;;2.28;;
39518;SDS011;25200;53.394;10.414;2023-03-23T09:10:01;6.05;;;2.65;;
39518;SDS011;25200;53.394;10.414;2023-03-23T09:12:27;4.25;;;2.17;;
39518;SDS011;25200;53.394;10.414;2023-03-23T09:14:54;5.75;;;2.53;;
39518;SDS011;25200;53.394;10.414;2023-03-23T09:17:20;6.38;;;2.70;;
39518;SDS011;25200;53.394;10.414;2023-03-23T09:19:46;6.05;;;2.92;;
39518;SDS011;25200;53.394;10.414;2023-03-23T09:22:11;5.38;;;2.90;;
39518;SDS011;25200;53.394;10.414;2023-03-23T09:24:37;6.43;;;3.13;;
39518;SDS011;25200;53.394;10.414;2023-03-23T09:27:03;5.30;;;2.65;;
39518;SDS011;25200;53.394;10.414;2023-03-23T09:29:29;6.05;;;2.50;;
39518;SDS011;25200;53.394;10.414;2023-03-23T09:31:55;5.60;;;2.22;;
39518;SDS011;25200;53.394;10.414;2023-03-23T09:34:21;3.85;;;1.67;;
39518;SDS011;25200;53.394;10.414;2023-03-23T09:36:47;6.22;;;1.98;;
39518;SDS011;25200;53.394;10.414;2023-03-23T09:39:14;5.43;;;1.52;;
39518;SDS011;25200;53.394;10.414;2023-03-23T09:49:55;6.07;;;1.60;;
39518;SDS011;25200;53.394;10.414;2023-03-23T09:52:26;5.78;;;1.88;;
39518;SDS011;25200;53.394;10.414;2023-03-23T09:55:13;10.27;;;2.53;;
39518;SDS011;25200;53.394;10.414;2023-03-23T09:57:45;5.05;;;1.63;;
39518;SDS011;25200;53.394;10.414;2023-03-23T10:00:24;7.25;;;1.95;;
39518;SDS011;25200;53.394;10.414;2023-03-23T10:05:50;8.93;;;2.10;;
39518;SDS011;25200;53.394;10.414;2023-03-23T10:08:19;5.47;;;1.50;;
39518;SDS011;25200;53.394;10.414;2023-03-23T10:16:12;6.32;;;1.60;;
39518;SDS011;25200;53.394;10.414;2023-03-23T10:18:48;4.90;;;1.88;;
39518;SDS011;25200;53.394;10.414;2023-03-23T10:21:27;6.28;;;1.92;;
39518;SDS011;25200;53.394;10.414;2023-03-23T10:23:59;10.70;;;1.90;;
39518;SDS011;25200;53.394;10.414;2023-03-23T10:29:21;8.35;;;1.90;;
39518;SDS011;25200;53.394;10.414;2023-03-23T10:32:11;7.10;;;1.70;;
39518;SDS011;25200;53.394;10.414;2023-03-23T10:34:45;6.05;;;1.85;;
39518;SDS011;25200;53.394;10.414;2023-03-23T10:37:18;8.18;;;2.25;;
39518;SDS011;25200;53.394;10.414;2023-03-23T10:39:57;9.38;;;2.22;;
39518;SDS011;25200;53.394;10.414;2023-03-23T10:42:31;8.07;;;2.40;;
39518;SDS011;25200;53.394;10.414;2023-03-23T10:45:00;7.47;;;2.00;;
39518;SDS011;25200;53.394;10.414;2023-03-23T10:47:36;6.93;;;1.95;;
39518;SDS011;25200;53.394;10.414;2023-03-23T10:50:05;7.45;;;1.75;;
39518;SDS011;25200;53.394;10.414;2023-03-23T10:52:37;7.75;;;2.35;;
39518;SDS011;25200;53.394;10.414;2023-03-23T10:55:14;13.40;;;2.40;;
39518;SDS011;25200;53.394;10.414;2023-03-23T10:58:07;9.60;;;2.08;;
39518;SDS011;25200;53.394;10.414;2023-03-23T11:00:33;7.15;;;2.10;;
39518;SDS011;25200;53.394;10.414;2023-03-23T11:05:41;8.93;;;1.90;;
39518;SDS011;25200;53.394;10.414;2023-03-23T11:08:22;11.60;;;2.00;;
39518;SDS011;25200;53.394;10.414;2023-03-23T11:13:37;9.63;;;2.20;;
39518;SDS011;25200;53.394;10.414;2023-03-23T11:16:10;13.40;;;2.60;;
39518;SDS011;25200;53.394;10.414;2023-03-23T11:18:48;8.20;;;2.10;;
39518;SDS011;25200;53.394;10.414;2023-03-23T11:21:14;9.32;;;2.13;;
39518;SDS011;25200;53.394;10.414;2023-03-23T11:23:42;11.20;;;2.38;;
39518;SDS011;25200;53.394;10.414;2023-03-23T11:26:16;11.73;;;2.08;;
39518;SDS011;25200;53.394;10.414;2023-03-23T11:28:47;6.72;;;1.90;;
39518;SDS011;25200;53.394;10.414;2023-03-23T11:31:18;10.75;;;2.13;;
39518;SDS011;25200;53.394;10.414;2023-03-23T11:36:28;11.05;;;2.28;;
39518;SDS011;25200;53.394;10.414;2023-03-23T11:38:55;9.32;;;2.00;;
39518;SDS011;25200;53.394;10.414;2023-03-23T11:41:22;10.20;;;2.10;;
39518;SDS011;25200;53.394;10.414;2023-03-23T11:43:50;10.23;;;2.17;;
39518;SDS011;25200;53.394;10.414;2023-03-23T11:49:12;6.45;;;1.65;;
39518;SDS011;25200;53.394;10.414;2023-03-23T11:51:47;9.27;;;1.70;;
39518;SDS011;25200;53.394;10.414;2023-03-23T11:54:25;6.20;;;1.60;;
39518;SDS011;25200;53.394;10.414;2023-03-23T11:56:51;8.05;;;1.80;;
39518;SDS011;25200;53.394;10.414;2023-03-23T11:59:27;4.97;;;1.67;;
39518;SDS011;25200;53.394;10.414;2023-03-23T12:01:55;5.05;;;1.48;;
39518;SDS011;25200;53.394;10.414;2023-03-23T12:17:59;7.57;;;1.70;;
39518;SDS011;25200;53.394;10.414;2023-03-23T12:23:24;10.10;;;1.95;;
39518;SDS011;25200;53.394;10.414;2023-03-23T12:45:41;9.68;;;2.40;;
39518;SDS011;25200;53.394;10.414;2023-03-23T12:48:10;11.88;;;2.40;;
39518;SDS011;25200;53.394;10.414;2023-03-23T12:53:42;13.15;;;2.25;;
39518;SDS011;25200;53.394;10.414;2023-03-23T12:58:46;8.35;;;2.20;;
39518;SDS011;25200;53.394;10.414;2023-03-23T13:01:18;8.15;;;2.40;;
39518;SDS011;25200;53.394;10.414;2023-03-23T13:03:50;11.05;;;2.60;;
39518;SDS011;25200;53.394;10.414;2023-03-23T13:09:09;9.07;;;2.50;;
39518;SDS011;25200;53.394;10.414;2023-03-23T13:11:39;13.40;;;2.50;;
39518;SDS011;25200;53.394;10.414;2023-03-23T13:19:36;10.63;;;2.50;;
39518;SDS011;25200;53.394;10.414;2023-03-23T13:22:23;10.27;;;2.22;;
39518;SDS011;25200;53.394;10.414;2023-03-23T13:24:58;7.18;;;2.33;;
39518;SDS011;25200;53.394;10.414;2023-03-23T13:27:30;13.18;;;2.58;;
39518;SDS011;25200;53.394;10.414;2023-03-23T13:29:56;10.13;;;2.47;;
39518;SDS011;25200;53.394;10.414;2023-03-23T13:32:29;7.82;;;2.03;;
39518;SDS011;25200;53.394;10.414;2023-03-23T13:35:01;7.70;;;2.30;;
39518;SDS011;25200;53.394;10.414;2023-03-23T13:37:29;8.70;;;2.17;;
39518;SDS011;25200;53.394;10.414;2023-03-23T13:40:14;7.38;;;2.03;;
39518;SDS011;25200;53.394;10.414;2023-03-23T13:42:49;8.32;;;2.10;;
39518;SDS011;25200;53.394;10.414;2023-03-23T13:50:59;6.63;;;2.08;;
39518;SDS011;25200;53.394;10.414;2023-03-23T13:53:30;6.15;;;2.20;;
39518;SDS011;25200;53.394;10.414;2023-03-23T13:56:15;4.70;;;1.85;;
39518;SDS011;25200;53.394;10.414;2023-03-23T13:58:48;5.75;;;2.10;;
39518;SDS011;25200;53.394;10.414;2023-03-23T14:01:31;5.57;;;1.90;;
39518;SDS011;25200;53.394;10.414;2023-03-23T14:04:00;5.82;;;1.90;;
39518;SDS011;25200;53.394;10.414;2023-03-23T14:06:33;5.82;;;1.92;;
39518;SDS011;25200;53.394;10.414;2023-03-23T14:09:09;6.28;;;1.88;;
39518;SDS011;25200;53.394;10.414;2023-03-23T14:11:58;5.35;;;1.55;;
39518;SDS011;25200;53.394;10.414;2023-03-23T14:14:34;4.93;;;1.52;;
39518;SDS011;25200;53.394;10.414;2023-03-23T14:17:13;5.22;;;1.63;;
39518;SDS011;25200;53.394;10.414;2023-03-23T14:19:48;5.90;;;1.55;;
39518;SDS011;25200;53.394;10.414;2023-03-23T14:24:43;6.10;;;1.42;;
39518;SDS011;25200;53.394;10.414;2023-03-23T14:27:13;6.82;;;1.48;;
39518;SDS011;25200;53.394;10.414;2023-03-23T14:29:41;4.70;;;1.20;;
39518;SDS011;25200;53.394;10.414;2023-03-23T14:32:07;5.10;;;1.60;;
39518;SDS011;25200;53.394;10.414;2023-03-23T14:34:41;5.60;;;1.47;;
39518;SDS011;25200;53.394;10.414;2023-03-23T14:37:11;7.63;;;1.63;;
39518;SDS011;25200;53.394;10.414;2023-03-23T14:39:40;4.80;;;1.48;;
39518;SDS011;25200;53.394;10.414;2023-03-23T14:42:11;6.18;;;1.40;;
39518;SDS011;25200;53.394;10.414;2023-03-23T14:44:43;4.03;;;1.15;;
39518;SDS011;25200;53.394;10.414;2023-03-23T14:47:24;4.47;;;1.30;;
39518;SDS011;25200;53.394;10.414;2023-03-23T14:49:58;4.03;;;1.17;;
39518;SDS011;25200;53.394;10.414;2023-03-23T14:52:26;3.72;;;1.20;;
39518;SDS011;25200;53.394;10.414;2023-03-23T14:54:54;3.30;;;1.25;;
39518;SDS011;25200;53.394;10.414;2023-03-23T14:57:35;2.95;;;1.10;;
39518;SDS011;25200;53.394;10.414;2023-03-23T15:00:11;3.30;;;1.17;;
39518;SDS011;25200;53.394;10.414;2023-03-23T15:02:40;5.35;;;1.10;;
39518;SDS011;25200;53.394;10.414;2023-03-23T15:05:17;2.75;;;0.90;;
39518;SDS011;25200;53.394;10.414;2023-03-23T15:07:50;4.03;;;1.30;;
39518;SDS011;25200;53.394;10.414;2023-03-23T15:10:20;3.28;;;0.60;;
39518;SDS011;25200;53.394;10.414;2023-03-23T15:12:48;6.05;;;0.90;;
39518;SDS011;25200;53.394;10.414;2023-03-23T15:15:34;2.75;;;1.10;;
39518;SDS011;25200;53.394;10.414;2023-03-23T15:18:01;4.05;;;1.00;;
39518;SDS011;25200;53.394;10.414;2023-03-23T15:20:43;2.58;;;0.80;;
39518;SDS011;25200;53.394;10.414;2023-03-23T15:23:14;2.40;;;0.90;;
39518;SDS011;25200;53.394;10.414;2023-03-23T15:25:47;4.07;;;1.00;;
39518;SDS011;25200;53.394;10.414;2023-03-23T15:28:28;4.63;;;1.15;;
39518;SDS011;25200;53.394;10.414;2023-03-23T15:31:00;4.53;;;1.00;;
39518;SDS011;25200;53.394;10.414;2023-03-23T15:33:33;5.78;;;1.17;;
39518;SDS011;25200;53.394;10.414;2023-03-23T15:36:14;4.95;;;1.38;;
39518;SDS011;25200;53.394;10.414;2023-03-23T15:38:42;5.00;;;1.40;;
39518;SDS011;25200;53.394;10.414;2023-03-23T15:41:21;3.55;;;1.30;;
39518;SDS011;25200;53.394;10.414;2023-03-23T15:43:53;6.60;;;1.55;;
39518;SDS011;25200;53.394;10.414;2023-03-23T15:46:25;3.95;;;1.00;;
39518;SDS011;25200;53.394;10.414;2023-03-23T15:51:20;3.88;;;1.23;;
39518;SDS011;25200;53.394;10.414;2023-03-23T15:53:49;4.53;;;1.10;;
39518;SDS011;25200;53.394;10.414;2023-03-23T15:56:16;3.15;;;1.08;;
39518;SDS011;25200;53.394;10.414;2023-03-23T15:58:43;3.35;;;1.27;;
39518;SDS011;25200;53.394;10.414;2023-03-23T16:01:13;3.78;;;1.17;;
39518;SDS011;25200;53.394;10.414;2023-03-23T16:03:50;3.58;;;0.98;;
39518;SDS011;25200;53.394;10.414;2023-03-23T16:06:22;5.70;;;1.08;;
39518;SDS011;25200;53.394;10.414;2023-03-23T16:08:50;3.00;;;0.90;;
39518;SDS011;25200;53.394;10.414;2023-03-23T16:11:17;3.90;;;1.10;;
39518;SDS011;25200;53.394;10.414;2023-03-23T16:13:43;7.45;;;1.13;;
39518;SDS011;25200;53.394;10.414;2023-03-23T16:16:13;3.78;;;0.82;;
39518;SDS011;25200;53.394;10.414;2023-03-23T16:18:41;3.70;;;1.10;;
39518;SDS011;25200;53.394;10.414;2023-03-23T16:21:07;3.17;;;0.80;;
39518;SDS011;25200;53.394;10.414;2023-03-23T16:23:33;3.58;;;1.17;;
39518;SDS011;25200;53.394;10.414;2023-03-23T16:25:59;4.18;;;0.98;;
39518;SDS011;25200;53.394;10.414;2023-03-23T16:28:25;4.88;;;1.40;;
39518;SDS011;25200;53.394;10.414;2023-03-23T16:30:50;4.95;;;1.42;;
39518;SDS011;25200;53.394;10.414;2023-03-23T16:33:16;3.75;;;1.00;;
39518;SDS011;25200;53.394;10.414;2023-03-23T16:35:42;3.35;;;1.08;;
39518;SDS011;25200;53.394;10.414;2023-03-23T16:38:12;5.28;;;1.27;;
39518;SDS011;25200;53.394;10.414;2023-03-23T16:40:40;5.45;;;1.30;;